Time;durP1;ratioP1;P1;durP2;ratioP2;P2;SDS_P1;SDS_P2;PMS_P1;PMS_P2;Temp;Humidity;BMP_temperature;BMP_pressure;BME280_temperature;BME280_humidity;BME280_pressure;Samples;Min_cycle;Max_cycle;Signal;HPM_P1;HPM_P2
2022/10/30 00:00:34;;;;;;;;;;;;;;;;;;6263557;22;19954;-88
2022/10/30 00:03:00;;;;;;;;;;;;;;;;;;6288686;22;20369;-88
2022/10/30 00:05:26;;;;;;;;;;;;;;;;;;6267251;22;20434;-87
2022/10/30 00:07:52;;;;;;;;;;;;;;;;;;6293784;22;20036;-87
2022/10/30 00:10:18;;;;;;;;;;;;;;;;;;6266184;22;19915;-88
2022/10/30 00:12:44;;;;;;;;;;;;;;;;;;6269175;22;20012;-87
2022/10/30 00:15:10;;;;;;;;;;;;;;;;;;6290170;22;19926;-87
2022/10/30 00:17:36;;;;;;;;;;;;;;;;;;6266239;22;19919;-87
2022/10/30 00:20:02;;;;;;;;;;;;;;;;;;6266737;22;20667;-88
2022/10/30 00:22:28;;;;;;;;;;;;;;;;;;6266406;22;19918;-88
2022/10/30 00:24:54;;;;;;;;;;;;;;;;;;6323419;22;19940;-88
2022/10/30 00:27:20;;;;;;;;;;;;;;;;;;6323677;22;20310;-88
2022/10/30 00:29:46;;;;;;;;;;;;;;;;;;6300122;22;19918;-88
2022/10/30 00:32:12;;;;;;;;;;;;;;;;;;6292724;22;19919;-88
2022/10/30 00:34:38;;;;;;;;;;;;;;;;;;6296023;22;20326;-87
2022/10/30 00:37:06;;;;;;;;;;;;;;;;;;6296665;22;19919;-89
2022/10/30 00:39:32;;;;;;;;;;;;;;;;;;6295706;22;20596;-88
2022/10/30 00:41:58;;;;;;;;;;;;;;;;;;6294719;22;19925;-89
2022/10/30 00:44:24;;;;;;;;;;;;;;;;;;6321077;22;19922;-88
2022/10/30 00:46:50;;;;;;;;;;;;;;;;;;6297179;22;20308;-88
2022/10/30 00:49:16;;;;;;;;;;;;;;;;;;6296344;22;19972;-88
2022/10/30 00:51:42;;;;;;;;;;;;;;;;;;6295053;22;19919;-88
2022/10/30 00:54:09;;;;;;;;;;;;;;;;;;6292907;22;19918;-87
2022/10/30 00:56:35;;;;;;;;;;;;;;;;;;6295390;22;19929;-88
2022/10/30 00:59:01;;;;;;;;;;;;;;;;;;6297858;22;19919;-88
2022/10/30 01:01:27;;;;;;;;;;;;;;;;;;6295403;22;20054;-88
2022/10/30 01:03:53;;;;;;;;;;;;;;;;;;6293070;22;19925;-88
2022/10/30 01:06:19;;;;;;;;;;;;;;;;;;6292972;22;19918;-88
2022/10/30 01:08:45;;;;;;;;;;;;;;;;;;6323681;22;20011;-88
2022/10/30 01:11:11;;;;;;;;;;;;;;;;;;6294495;22;20007;-89
2022/10/30 01:13:37;;;;;;;;;;;;;;;;;;6296309;22;20358;-88
2022/10/30 01:16:03;;;;;;;;;;;;;;;;;;6295658;22;19919;-88
2022/10/30 01:18:29;;;;;;;;;;;;;;;;;;6293394;22;19972;-88
2022/10/30 01:20:55;;;;;;;;;;;;;;;;;;6295528;22;19968;-88
2022/10/30 01:23:20;;;;;;;;;;;;;;;;;;6292790;22;19961;-88
2022/10/30 01:25:47;;;;;;;;;;;;;;;;;;6297065;22;19946;-88
2022/10/30 01:28:12;;;;;;;;;;;;;;;;;;6293585;22;19965;-88
2022/10/30 01:30:38;;;;;;;;;;;;;;;;;;6295451;22;19918;-88
2022/10/30 01:33:04;;;;;;;;;;;;;;;;;;6294986;22;19915;-88
2022/10/30 01:35:30;;;;;;;;;;;;;;;;;;6294891;22;19986;-88
2022/10/30 01:37:56;;;;;;;;;;;;;;;;;;6296742;22;20314;-88
2022/10/30 01:40:22;;;;;;;;;;;;;;;;;;6322553;22;19963;-88
2022/10/30 01:42:51;;;;;;;;;;;;;;;;;;6295164;22;19919;-88
2022/10/30 01:45:17;;;;;;;;;;;;;;;;;;6296899;22;19915;-88
2022/10/30 01:47:43;;;;;;;;;;;;;;;;;;6296329;22;20307;-86
2022/10/30 01:50:09;;;;;;;;;;;;;;;;;;6293389;22;19954;-87
2022/10/30 01:52:38;;;;;;;;;;;;;;;;;;6292565;22;19922;-87
2022/10/30 01:55:06;;;;;;;;;;;;;;;;;;6297302;22;19945;-87
2022/10/30 01:57:32;;;;;;;;;;;;;;;;;;6296513;22;20013;-87
2022/10/30 01:59:58;;;;;;;;;;;;;;;;;;6294762;22;20390;-86
2022/10/30 02:02:24;;;;;;;;;;;;;;;;;;6294314;22;19948;-87
2022/10/30 02:04:50;;;;;;;;;;;;;;;;;;6295753;22;19918;-87
2022/10/30 02:07:16;;;;;;;;;;;;;;;;;;6291789;22;20002;-87
2022/10/30 02:09:42;;;;;;;;;;;;;;;;;;6295949;22;20039;-87
2022/10/30 02:12:08;;;;;;;;;;;;;;;;;;6295185;22;19937;-87
2022/10/30 02:14:34;;;;;;;;;;;;;;;;;;6295353;22;20280;-87
2022/10/30 02:17:00;;;;;;;;;;;;;;;;;;6293498;22;19925;-87
2022/10/30 02:19:26;;;;;;;;;;;;;;;;;;6297134;22;19992;-87
2022/10/30 02:21:52;;;;;;;;;;;;;;;;;;6295591;22;19981;-87
2022/10/30 02:24:18;;;;;;;;;;;;;;;;;;6289223;22;19923;-93
2022/10/30 02:26:44;;;;;;;;;;;;;;;;;;6289471;22;19919;-87
2022/10/30 02:29:10;;;;;;;;;;;;;;;;;;6288260;22;20741;-87
2022/10/30 02:31:36;;;;;;;;;;;;;;;;;;6288245;22;19919;-87
2022/10/30 02:34:02;;;;;;;;;;;;;;;;;;6288373;22;19919;-87
2022/10/30 02:36:28;;;;;;;;;;;;;;;;;;6286003;22;20037;-86
2022/10/30 02:38:54;;;;;;;;;;;;;;;;;;6264684;22;19945;-86
2022/10/30 02:41:20;;;;;;;;;;;;;;;;;;6287208;22;20294;-87
2022/10/30 02:43:46;;;;;;;;;;;;;;;;;;6263730;22;19918;-87
2022/10/30 02:46:12;;;;;;;;;;;;;;;;;;6262515;22;20304;-88
2022/10/30 02:48:38;;;;;;;;;;;;;;;;;;6265482;22;19925;-87
2022/10/30 02:51:07;;;;;;;;;;;;;;;;;;6265178;22;19930;-87
2022/10/30 02:53:33;;;;;;;;;;;;;;;;;;6264550;22;19919;-87
2022/10/30 02:55:59;;;;;;;;;;;;;;;;;;6290849;22;19914;-87
2022/10/30 02:58:25;;;;;;;;;;;;;;;;;;6264433;22;20409;-87
2022/10/30 03:00:51;;;;;;;;;;;;;;;;;;6264983;22;19926;-87
2022/10/30 03:03:17;;;;;;;;;;;;;;;;;;6287698;22;20433;-87
2022/10/30 03:05:43;;;;;;;;;;;;;;;;;;6305478;22;19931;-87
2022/10/30 03:08:09;;;;;;;;;;;;;;;;;;6265259;22;19984;-88
2022/10/30 03:10:35;;;;;;;;;;;;;;;;;;6267060;22;20273;-88
2022/10/30 03:13:01;;;;;;;;;;;;;;;;;;6264829;22;19977;-88
2022/10/30 03:15:27;;;;;;;;;;;;;;;;;;6290016;22;19918;-88
2022/10/30 03:17:54;;;;;;;;;;;;;;;;;;6265555;22;19915;-88
2022/10/30 03:20:20;;;;;;;;;;;;;;;;;;6261461;22;19961;-88
2022/10/30 03:22:46;;;;;;;;;;;;;;;;;;6265020;22;19927;-88
2022/10/30 03:25:12;;;;;;;;;;;;;;;;;;6290537;22;19918;-88
2022/10/30 03:27:38;;;;;;;;;;;;;;;;;;6287855;22;20389;-87
2022/10/30 03:30:07;;;;;;;;;;;;;;;;;;6293584;22;19957;-88
2022/10/30 03:32:33;;;;;;;;;;;;;;;;;;6289584;22;19915;-88
2022/10/30 03:34:59;;;;;;;;;;;;;;;;;;6293907;22;19961;-88
2022/10/30 03:37:25;;;;;;;;;;;;;;;;;;6294122;22;19950;-88
2022/10/30 03:39:51;;;;;;;;;;;;;;;;;;6294739;22;20328;-88
2022/10/30 03:42:17;;;;;;;;;;;;;;;;;;6291474;22;19915;-88
2022/10/30 03:44:42;;;;;;;;;;;;;;;;;;6293698;22;20025;-88
2022/10/30 03:47:08;;;;;;;;;;;;;;;;;;6293946;22;20324;-88
2022/10/30 03:49:34;;;;;;;;;;;;;;;;;;6294923;22;19930;-88
2022/10/30 03:52:00;;;;;;;;;;;;;;;;;;6295923;22;19915;-88
2022/10/30 03:54:26;;;;;;;;;;;;;;;;;;6294330;22;20391;-88
2022/10/30 03:56:52;;;;;;;;;;;;;;;;;;6297246;22;19919;-88
2022/10/30 03:59:18;;;;;;;;;;;;;;;;;;6294320;22;19919;-88
2022/10/30 04:01:44;;;;;;;;;;;;;;;;;;6294864;22;20252;-87
2022/10/30 04:04:10;;;;;;;;;;;;;;;;;;6292715;22;19919;-88
2022/10/30 04:06:36;;;;;;;;;;;;;;;;;;6294806;22;20044;-88
2022/10/30 04:09:02;;;;;;;;;;;;;;;;;;6296257;22;19993;-88
2022/10/30 04:11:28;;;;;;;;;;;;;;;;;;6292819;22;19919;-88
2022/10/30 04:13:54;;;;;;;;;;;;;;;;;;6294934;22;19942;-87
2022/10/30 04:16:20;;;;;;;;;;;;;;;;;;6292218;22;19922;-88
2022/10/30 04:18:46;;;;;;;;;;;;;;;;;;6296711;22;19950;-88
2022/10/30 04:21:12;;;;;;;;;;;;;;;;;;6292520;22;19963;-88
2022/10/30 04:23:38;;;;;;;;;;;;;;;;;;6292584;22;19930;-88
2022/10/30 04:26:07;;;;;;;;;;;;;;;;;;6295476;22;19923;-88
2022/10/30 04:28:36;;;;;;;;;;;;;;;;;;6295258;22;19918;-88
2022/10/30 04:31:02;;;;;;;;;;;;;;;;;;6294663;22;19915;-88
2022/10/30 04:33:28;;;;;;;;;;;;;;;;;;6293046;22;19941;-87
2022/10/30 04:35:54;;;;;;;;;;;;;;;;;;6294447;22;19919;-87
2022/10/30 04:38:19;;;;;;;;;;;;;;;;;;6291753;22;20242;-88
2022/10/30 04:40:45;;;;;;;;;;;;;;;;;;6296119;22;19968;-87
2022/10/30 04:43:11;;;;;;;;;;;;;;;;;;6292188;22;19968;-88
2022/10/30 04:45:37;;;;;;;;;;;;;;;;;;6293953;22;20354;-88
2022/10/30 04:48:07;;;;;;;;;;;;;;;;;;6294791;22;19973;-88
2022/10/30 04:50:32;;;;;;;;;;;;;;;;;;6295704;22;19946;-88
2022/10/30 04:52:58;;;;;;;;;;;;;;;;;;6295775;22;19937;-87
2022/10/30 04:55:24;;;;;;;;;;;;;;;;;;6292652;22;19998;-88
2022/10/30 04:57:50;;;;;;;;;;;;;;;;;;6294564;22;19969;-88
2022/10/30 05:00:16;;;;;;;;;;;;;;;;;;6291987;22;19972;-88
2022/10/30 05:02:42;;;;;;;;;;;;;;;;;;6295949;22;20229;-88
2022/10/30 05:05:08;;;;;;;;;;;;;;;;;;6294023;22;19950;-88
2022/10/30 05:07:34;;;;;;;;;;;;;;;;;;6295006;22;20346;-88
2022/10/30 05:10:00;;;;;;;;;;;;;;;;;;6295943;22;19919;-88
2022/10/30 05:12:26;;;;;;;;;;;;;;;;;;6292345;22;19919;-87
2022/10/30 05:14:52;;;;;;;;;;;;;;;;;;6296683;22;19938;-87
2022/10/30 05:17:18;;;;;;;;;;;;;;;;;;6293887;22;19964;-87
2022/10/30 05:19:44;;;;;;;;;;;;;;;;;;6297978;22;19929;-87
2022/10/30 05:22:11;;;;;;;;;;;;;;;;;;6294949;22;19998;-88
2022/10/30 05:24:37;;;;;;;;;;;;;;;;;;6296539;22;19922;-87
2022/10/30 05:27:03;;;;;;;;;;;;;;;;;;6296001;22;19914;-87
2022/10/30 05:29:29;;;;;;;;;;;;;;;;;;6293355;22;20320;-88
2022/10/30 05:31:55;;;;;;;;;;;;;;;;;;6295069;22;19972;-87
2022/10/30 05:34:21;;;;;;;;;;;;;;;;;;6294069;22;19946;-88
2022/10/30 05:36:47;;;;;;;;;;;;;;;;;;6294476;22;20010;-87
2022/10/30 05:39:13;;;;;;;;;;;;;;;;;;6295631;22;19915;-87
2022/10/30 05:41:39;;;;;;;;;;;;;;;;;;6295455;22;20216;-86
2022/10/30 05:44:05;;;;;;;;;;;;;;;;;;6294359;22;19930;-87
2022/10/30 05:46:31;;;;;;;;;;;;;;;;;;6294988;22;19922;-86
2022/10/30 05:48:59;;;;;;;;;;;;;;;;;;6296010;22;20029;-87
2022/10/30 05:51:25;;;;;;;;;;;;;;;;;;6292333;22;20464;-87
2022/10/30 05:53:51;;;;;;;;;;;;;;;;;;6294275;22;20254;-87
2022/10/30 05:56:17;;;;;;;;;;;;;;;;;;6293479;22;19919;-87
2022/10/30 05:58:43;;;;;;;;;;;;;;;;;;6294297;22;19915;-87
2022/10/30 06:01:09;;;;;;;;;;;;;;;;;;6293825;22;19918;-87
2022/10/30 06:03:35;;;;;;;;;;;;;;;;;;6295732;22;20323;-87
2022/10/30 06:06:01;;;;;;;;;;;;;;;;;;6295821;22;19989;-87
2022/10/30 06:08:27;;;;;;;;;;;;;;;;;;6293421;22;20024;-86
2022/10/30 06:10:53;;;;;;;;;;;;;;;;;;6297570;22;20320;-86
2022/10/30 06:13:19;;;;;;;;;;;;;;;;;;6290592;22;19923;-87
2022/10/30 06:15:45;;;;;;;;;;;;;;;;;;6294501;22;19923;-87
2022/10/30 06:18:11;;;;;;;;;;;;;;;;;;6293765;22;19919;-87
2022/10/30 06:20:37;;;;;;;;;;;;;;;;;;6295170;22;20340;-86
2022/10/30 06:23:03;;;;;;;;;;;;;;;;;;6296777;22;19919;-86
2022/10/30 06:25:29;;;;;;;;;;;;;;;;;;6295671;22;19953;-87
2022/10/30 06:27:55;;;;;;;;;;;;;;;;;;6295274;22;19962;-86
2022/10/30 06:30:21;;;;;;;;;;;;;;;;;;6292286;22;20290;-86
2022/10/30 06:32:47;;;;;;;;;;;;;;;;;;6296004;22;19919;-87
2022/10/30 06:35:13;;;;;;;;;;;;;;;;;;6293050;22;19950;-86
2022/10/30 06:37:39;;;;;;;;;;;;;;;;;;6294891;22;19915;-85
2022/10/30 06:40:05;;;;;;;;;;;;;;;;;;6293242;22;20002;-86
2022/10/30 06:42:31;;;;;;;;;;;;;;;;;;6293736;22;19918;-86
2022/10/30 06:44:57;;;;;;;;;;;;;;;;;;6294846;22;19919;-87
2022/10/30 06:47:23;;;;;;;;;;;;;;;;;;6292973;22;19954;-86
2022/10/30 06:49:49;;;;;;;;;;;;;;;;;;6295530;22;20328;-86
2022/10/30 06:52:16;;;;;;;;;;;;;;;;;;6291622;22;20475;-87
2022/10/30 06:54:42;;;;;;;;;;;;;;;;;;6295184;22;19918;-86
2022/10/30 06:57:08;;;;;;;;;;;;;;;;;;6291904;22;20323;-87
2022/10/30 06:59:34;;;;;;;;;;;;;;;;;;6295457;22;19972;-86
2022/10/30 07:01:59;;;;;;;;;;;;;;;;;;6294546;22;19950;-87
2022/10/30 07:04:25;;;;;;;;;;;;;;;;;;6292748;22;19949;-86
2022/10/30 07:06:51;;;;;;;;;;;;;;;;;;6293839;22;19965;-86
2022/10/30 07:09:17;;;;;;;;;;;;;;;;;;6291705;22;20397;-86
2022/10/30 07:11:44;;;;;;;;;;;;;;;;;;6294806;22;19941;-85
2022/10/30 07:14:10;;;;;;;;;;;;;;;;;;6292167;22;19919;-86
2022/10/30 07:16:36;;;;;;;;;;;;;;;;;;6297243;22;19929;-86
2022/10/30 07:19:02;;;;;;;;;;;;;;;;;;6296787;22;19919;-86
2022/10/30 07:21:28;;;;;;;;;;;;;;;;;;6292845;22;19919;-87
2022/10/30 07:23:54;;;;;;;;;;;;;;;;;;6295139;22;19929;-86
2022/10/30 07:26:20;;;;;;;;;;;;;;;;;;6295239;22;19919;-86
2022/10/30 07:28:46;;;;;;;;;;;;;;;;;;6297809;22;20326;-86
2022/10/30 07:31:12;;;;;;;;;;;;;;;;;;6293654;22;19995;-87
2022/10/30 07:33:38;;;;;;;;;;;;;;;;;;6296738;22;20244;-86
2022/10/30 07:36:07;;;;;;;;;;;;;;;;;;6295483;22;19925;-87
2022/10/30 07:38:33;;;;;;;;;;;;;;;;;;6296709;22;19919;-86
2022/10/30 07:40:59;;;;;;;;;;;;;;;;;;6295168;22;19929;-86
2022/10/30 07:43:25;;;;;;;;;;;;;;;;;;6294333;22;19922;-86
2022/10/30 07:45:51;;;;;;;;;;;;;;;;;;6297827;22;20233;-86
2022/10/30 07:48:17;;;;;;;;;;;;;;;;;;6293873;22;20050;-86
2022/10/30 07:50:43;;;;;;;;;;;;;;;;;;6294946;22;19941;-86
2022/10/30 07:53:09;;;;;;;;;;;;;;;;;;6290789;22;20107;-87
2022/10/30 07:55:35;;;;;;;;;;;;;;;;;;6293399;22;19926;-86
2022/10/30 07:58:01;;;;;;;;;;;;;;;;;;6295603;22;20336;-85
2022/10/30 08:00:27;;;;;;;;;;;;;;;;;;6291195;22;20417;-87
2022/10/30 08:02:53;;;;;;;;;;;;;;;;;;6293072;22;19926;-87
2022/10/30 08:05:19;;;;;;;;;;;;;;;;;;6290639;22;19954;-87
2022/10/30 08:07:45;;;;;;;;;;;;;;;;;;6291621;22;19922;-86
2022/10/30 08:10:11;;;;;;;;;;;;;;;;;;6294327;22;20621;-86
2022/10/30 08:12:39;;;;;;;;;;;;;;;;;;6298751;22;19954;-86
2022/10/30 08:15:05;;;;;;;;;;;;;;;;;;6299261;22;19930;-86
2022/10/30 08:17:31;;;;;;;;;;;;;;;;;;6298991;22;19919;-86
2022/10/30 08:19:57;;;;;;;;;;;;;;;;;;6297056;22;19919;-86
2022/10/30 08:22:23;;;;;;;;;;;;;;;;;;6320039;22;19915;-86
2022/10/30 08:24:49;;;;;;;;;;;;;;;;;;6295855;22;20323;-86
2022/10/30 08:27:15;;;;;;;;;;;;;;;;;;6265796;22;19968;-86
2022/10/30 08:29:41;;;;;;;;;;;;;;;;;;6296410;22;19923;-87
2022/10/30 08:32:07;;;;;;;;;;;;;;;;;;6295128;22;19918;-87
2022/10/30 08:34:36;;;;;;;;;;;;;;;;;;6297164;22;19923;-87
2022/10/30 08:37:02;;;;;;;;;;;;;;;;;;6296069;22;19989;-88
2022/10/30 08:39:28;;;;;;;;;;;;;;;;;;6268128;22;19919;-87
2022/10/30 08:41:54;;;;;;;;;;;;;;;;;;6297413;22;19926;-86
2022/10/30 08:44:20;;;;;;;;;;;;;;;;;;6293907;22;19918;-86
2022/10/30 08:46:46;;;;;;;;;;;;;;;;;;6269646;22;19925;-86
2022/10/30 08:49:12;;;;;;;;;;;;;;;;;;6267482;22;20418;-85
2022/10/30 08:51:38;;;;;;;;;;;;;;;;;;6294088;22;19919;-89
2022/10/30 08:54:09;;;;;;;;;;;;;;;;;;6268522;22;19919;-90
2022/10/30 08:56:35;;;;;;;;;;;;;;;;;;6294363;22;19922;-85
2022/10/30 08:59:01;;;;;;;;;;;;;;;;;;6269163;22;19919;-86
2022/10/30 09:01:27;;;;;;;;;;;;;;;;;;6292417;22;19948;-88
2022/10/30 09:03:53;;;;;;;;;;;;;;;;;;6269279;22;19918;-87
2022/10/30 09:06:19;;;;;;;;;;;;;;;;;;6291845;22;19930;-86
2022/10/30 09:08:45;;;;;;;;;;;;;;;;;;6293692;22;19927;-86
2022/10/30 09:11:11;;;;;;;;;;;;;;;;;;6292778;22;20010;-86
2022/10/30 09:13:37;;;;;;;;;;;;;;;;;;6295520;22;20642;-86
2022/10/30 09:16:03;;;;;;;;;;;;;;;;;;6294820;22;19949;-86
2022/10/30 09:18:29;;;;;;;;;;;;;;;;;;6291851;22;19915;-86
2022/10/30 09:20:55;;;;;;;;;;;;;;;;;;6269173;22;19973;-86
2022/10/30 09:23:21;;;;;;;;;;;;;;;;;;6295479;22;19937;-86
2022/10/30 09:25:47;;;;;;;;;;;;;;;;;;6300188;22;19919;-86
2022/10/30 09:28:13;;;;;;;;;;;;;;;;;;6297885;22;19930;-87
2022/10/30 09:30:39;;;;;;;;;;;;;;;;;;6302039;22;20278;-86
2022/10/30 09:33:05;;;;;;;;;;;;;;;;;;6299859;22;19921;-86
2022/10/30 09:35:31;;;;;;;;;;;;;;;;;;6296978;22;20017;-89
2022/10/30 09:37:57;;;;;;;;;;;;;;;;;;6297280;22;19996;-87
2022/10/30 09:40:23;;;;;;;;;;;;;;;;;;6296557;22;20306;-86
2022/10/30 09:42:50;;;;;;;;;;;;;;;;;;6300093;22;19965;-86
2022/10/30 09:45:15;;;;;;;;;;;;;;;;;;6297607;22;20334;-86
2022/10/30 09:47:41;;;;;;;;;;;;;;;;;;6300587;22;20017;-86
2022/10/30 09:50:09;;;;;;;;;;;;;;;;;;6299077;22;20598;-86
2022/10/30 09:52:35;;;;;;;;;;;;;;;;;;6300772;22;20239;-86
2022/10/30 09:55:01;;;;;;;;;;;;;;;;;;6300799;22;19922;-87
2022/10/30 09:57:26;;;;;;;;;;;;;;;;;;6298104;22;20730;-87
2022/10/30 09:59:52;;;;;;;;;;;;;;;;;;6328792;22;19914;-87
2022/10/30 10:02:18;;;;;;;;;;;;;;;;;;6298376;22;19981;-87
2022/10/30 10:04:44;;;;;;;;;;;;;;;;;;6297067;22;19998;-87
2022/10/30 10:07:10;;;;;;;;;;;;;;;;;;6296423;22;20283;-89
2022/10/30 10:09:36;;;;;;;;;;;;;;;;;;6294034;22;19961;-87
2022/10/30 12:04:54;;;;;;;;;;;;;;;;;;6304769;22;20399;-89
2022/10/30 12:07:28;;;;;;;;;;;;;;;;;;6297726;22;20122;-89
2022/10/30 12:10:09;;;;;;;;;;;;;;;;;;6335026;22;19998;-89
2022/10/30 12:12:38;;;;;;;;;;;;;;;;;;6298990;22;19914;-89
2022/10/30 12:15:13;;;;;;;;;;;;;;;;;;6296701;22;19953;-89
2022/10/30 12:17:39;;;;;;;;;;;;;;;;;;6300253;22;19918;-89
2022/10/30 12:20:08;;;;;;;;;;;;;;;;;;6300902;22;19915;-89
2022/10/30 12:22:41;;;;;;;;;;;;;;;;;;6299214;22;20246;-89
2022/10/30 12:25:10;;;;;;;;;;;;;;;;;;6324998;22;20839;-90
2022/10/30 12:30:48;;;;;;;;;;;;;;;;;;6321193;22;19978;-89
2022/10/30 12:33:39;;;;;;;;;;;;;;;;;;;;;
2022/10/30 12:39:21;;;;;;;;;;;;;;;;;;6334742;22;20254;-90
2022/10/30 12:42:53;;;;;;;;;;;;;;;;;;;;;
2022/10/30 12:48:20;;;;;;;;;;;;;;;;;;6179661;23;19924;-89
2022/10/30 12:53:59;;;;;;;;;;;;;;;;;;6139824;23;19921;-89
2022/10/30 12:56:49;;;;;;;;;;;;;;;;;;6058093;23;19917;-89
2022/10/30 12:59:34;;;;;;;;;;;;;;;;;;;;;
2022/10/30 13:02:31;;;;;;;;;;;;;;;;;;;;;
2022/10/30 13:08:15;;;;;;;;;;;;;;;;;;6089189;23;20043;-88
2022/10/30 13:11:08;;;;;;;;;;;;;;;;;;6036441;23;19925;-89
2022/10/30 13:14:14;;;;;;;;;;;;;;;;;;;;;
2022/10/30 13:17:27;;;;;;;;;;;;;;;;;;;;;
2022/10/30 13:20:09;;;;;;;;;;;;;;;;;;6136484;23;19924;-90
2022/10/30 13:59:01;;;;;;;;;;;;;;;;;;6289829;22;19975;-89
2022/10/30 14:01:27;;;;;;;;;;;;;;;;;;6287179;22;19919;-89
2022/10/30 14:03:53;;;;;;;;;;;;;;;;;;6289523;22;19938;-89
2022/10/30 14:06:19;;;;;;;;;;;;;;;;;;6285308;22;20431;-90
2022/10/30 14:08:55;;;;;;;;;;;;;;;;;;6294880;22;23556;-90
2022/10/30 14:11:23;;;;;;;;;;;;;;;;;;6290050;22;20006;-88
2022/10/30 14:13:49;;;;;;;;;;;;;;;;;;6292005;22;19919;-88
2022/10/30 14:16:18;;;;;;;;;;;;;;;;;;6291380;22;19923;-88
2022/10/30 14:18:47;;;;;;;;;;;;;;;;;;6289166;22;19957;-88
2022/10/30 14:21:14;;;;;;;;;;;;;;;;;;6289247;22;19937;-86
2022/10/30 14:23:40;;;;;;;;;;;;;;;;;;6290891;22;19919;-86
2022/10/30 14:26:06;;;;;;;;;;;;;;;;;;6289159;22;20336;-86
2022/10/30 14:28:32;;;;;;;;;;;;;;;;;;6289181;22;19922;-87
2022/10/30 14:30:58;;;;;;;;;;;;;;;;;;6288466;22;20153;-86
2022/10/30 14:33:23;;;;;;;;;;;;;;;;;;6289219;22;19919;-86
2022/10/30 14:35:49;;;;;;;;;;;;;;;;;;6291385;22;20437;-86
2022/10/30 14:38:15;;;;;;;;;;;;;;;;;;6313873;22;19919;-86
2022/10/30 14:40:41;;;;;;;;;;;;;;;;;;6291553;22;20319;-86
2022/10/30 14:46:46;;;;;;;;;;;;;;;;;;6240380;23;19989;-86
2022/10/30 15:49:31;;;;;;;;;;;;;;;;;;5923239;24;19930;-88
2022/10/30 16:01:41;;;;;;;;;;;;;;;;;;;;;
2022/10/30 16:07:33;;;;;;;;;;;;;;;;;;6028960;23;19965;-87
2022/10/30 16:10:05;;;;;;;;;;;;;;;;;;5977624;23;19929;-87
2022/10/30 16:12:31;;;;;;;;;;;;;;;;;;5996829;23;19917;-87
2022/10/30 16:14:59;;;;;;;;;;;;;;;;;;6076277;23;19976;-87
2022/10/30 16:17:25;;;;;;;;;;;;;;;;;;6116267;23;19927;-86
2022/10/30 16:19:51;;;;;;;;;;;;;;;;;;6148435;23;19916;-87
2022/10/30 16:22:17;;;;;;;;;;;;;;;;;;6141271;23;19966;-87
2022/10/30 16:24:43;;;;;;;;;;;;;;;;;;6120061;23;19919;-87
2022/10/30 16:27:09;;;;;;;;;;;;;;;;;;6117032;23;19931;-88
2022/10/30 16:29:35;;;;;;;;;;;;;;;;;;6119629;23;19924;-87
2022/10/30 16:32:07;;;;;;;;;;;;;;;;;;6143764;23;19916;-86
2022/10/30 16:34:40;;;;;;;;;;;;;;;;;;6144100;23;19943;-86
2022/10/30 16:37:06;;;;;;;;;;;;;;;;;;6143716;23;19924;-86
2022/10/30 16:39:32;;;;;;;;;;;;;;;;;;6117485;23;19920;-87
2022/10/30 16:41:58;;;;;;;;;;;;;;;;;;6167988;23;19926;-87
2022/10/30 16:44:24;;;;;;;;;;;;;;;;;;6117513;23;19995;-87
2022/10/30 16:46:51;;;;;;;;;;;;;;;;;;6120028;23;20424;-87
2022/10/30 16:49:19;;;;;;;;;;;;;;;;;;6116702;23;20391;-86
2022/10/30 16:51:45;;;;;;;;;;;;;;;;;;6145234;23;19919;-86
2022/10/30 16:54:11;;;;;;;;;;;;;;;;;;6176652;23;20321;-87
2022/10/30 16:56:37;;;;;;;;;;;;;;;;;;6207242;23;19969;-86
2022/10/30 16:59:03;;;;;;;;;;;;;;;;;;6208769;23;19915;-86
2022/10/30 17:01:29;;;;;;;;;;;;;;;;;;6200901;23;19935;-87
2022/10/30 17:03:55;;;;;;;;;;;;;;;;;;6230347;23;19965;-87
2022/10/30 17:06:22;;;;;;;;;;;;;;;;;;6230995;23;19920;-86
2022/10/30 17:08:48;;;;;;;;;;;;;;;;;;6231779;23;19924;-86
2022/10/30 17:11:14;;;;;;;;;;;;;;;;;;6227573;23;19926;-86
2022/10/30 17:13:41;;;;;;;;;;;;;;;;;;6229367;23;20324;-86
2022/10/30 17:16:07;;;;;;;;;;;;;;;;;;6232573;23;20334;-87
2022/10/30 17:18:33;;;;;;;;;;;;;;;;;;6231349;23;19951;-86
2022/10/30 17:20:59;;;;;;;;;;;;;;;;;;6232606;23;20308;-86
2022/10/30 17:23:25;;;;;;;;;;;;;;;;;;6229345;23;19927;-86
2022/10/30 17:25:51;;;;;;;;;;;;;;;;;;6231176;23;20329;-86
2022/10/30 17:28:17;;;;;;;;;;;;;;;;;;6230285;23;19929;-86
2022/10/30 17:30:43;;;;;;;;;;;;;;;;;;6229468;23;19926;-86
2022/10/30 17:33:09;;;;;;;;;;;;;;;;;;6229693;23;19961;-86
2022/10/30 17:35:35;;;;;;;;;;;;;;;;;;6231712;23;19964;-87
2022/10/30 17:38:01;;;;;;;;;;;;;;;;;;6230916;23;19926;-86
2022/10/30 17:40:27;;;;;;;;;;;;;;;;;;6229813;23;20340;-86
2022/10/30 17:42:53;;;;;;;;;;;;;;;;;;6230002;23;19919;-86
2022/10/30 17:45:19;;;;;;;;;;;;;;;;;;6227993;23;20248;-86
2022/10/30 17:47:45;;;;;;;;;;;;;;;;;;6230854;23;19925;-86
2022/10/30 17:50:11;;;;;;;;;;;;;;;;;;6229153;23;19970;-87
2022/10/30 17:52:40;;;;;;;;;;;;;;;;;;6232175;23;19920;-87
2022/10/30 17:55:06;;;;;;;;;;;;;;;;;;6231386;22;19919;-86
2022/10/30 17:57:32;;;;;;;;;;;;;;;;;;6228637;23;20268;-86
2022/10/30 17:59:57;;;;;;;;;;;;;;;;;;6226569;23;19958;-86
2022/10/30 18:02:23;;;;;;;;;;;;;;;;;;6225437;23;19969;-86
2022/10/30 18:04:52;;;;;;;;;;;;;;;;;;6227902;23;19955;-86
2022/10/30 18:07:18;;;;;;;;;;;;;;;;;;6226825;23;19965;-84
2022/10/30 18:09:44;;;;;;;;;;;;;;;;;;6228833;23;19967;-87
2022/10/30 18:12:10;;;;;;;;;;;;;;;;;;6226626;23;19923;-87
2022/10/30 18:14:36;;;;;;;;;;;;;;;;;;6229346;23;20415;-86
2022/10/30 18:17:02;;;;;;;;;;;;;;;;;;6229218;23;19920;-87
2022/10/30 18:19:28;;;;;;;;;;;;;;;;;;6225958;23;19923;-86
2022/10/30 18:21:54;;;;;;;;;;;;;;;;;;6228015;23;20669;-87
2022/10/30 18:24:19;;;;;;;;;;;;;;;;;;6226468;23;19923;-86
2022/10/30 18:26:45;;;;;;;;;;;;;;;;;;6231582;23;19915;-86
2022/10/30 18:29:11;;;;;;;;;;;;;;;;;;6225625;23;20302;-87
2022/10/30 18:31:37;;;;;;;;;;;;;;;;;;6231319;23;19942;-84
2022/10/30 18:34:03;;;;;;;;;;;;;;;;;;6230455;23;19943;-84
2022/10/30 18:36:29;;;;;;;;;;;;;;;;;;6229224;23;20003;-84
2022/10/30 18:38:56;;;;;;;;;;;;;;;;;;6231798;23;19919;-85
2022/10/30 18:41:22;;;;;;;;;;;;;;;;;;6227071;23;20340;-85
2022/10/30 18:43:48;;;;;;;;;;;;;;;;;;6229962;23;19926;-85
2022/10/30 18:46:15;;;;;;;;;;;;;;;;;;6228704;23;20609;-85
2022/10/30 18:48:41;;;;;;;;;;;;;;;;;;6230059;23;20286;-85
2022/10/30 18:51:07;;;;;;;;;;;;;;;;;;6227097;23;19947;-85
2022/10/30 18:53:33;;;;;;;;;;;;;;;;;;6230878;23;19923;-84
2022/10/30 18:55:59;;;;;;;;;;;;;;;;;;6227130;22;20600;-85
2022/10/30 18:58:25;;;;;;;;;;;;;;;;;;6226222;23;19919;-85
2022/10/30 19:00:51;;;;;;;;;;;;;;;;;;6225486;23;20348;-85
2022/10/30 19:03:17;;;;;;;;;;;;;;;;;;6226361;23;19920;-86
2022/10/30 19:05:43;;;;;;;;;;;;;;;;;;6226640;23;19919;-85
2022/10/30 19:08:09;;;;;;;;;;;;;;;;;;6226062;23;19984;-85
2022/10/30 19:10:35;;;;;;;;;;;;;;;;;;6231930;23;19995;-86
2022/10/30 19:13:01;;;;;;;;;;;;;;;;;;6234100;22;19920;-85
2022/10/30 19:15:27;;;;;;;;;;;;;;;;;;6229054;22;20006;-85
2022/10/30 19:17:53;;;;;;;;;;;;;;;;;;6228453;22;20625;-85
2022/10/30 19:20:19;;;;;;;;;;;;;;;;;;6221661;23;20035;-85
2022/10/30 19:22:45;;;;;;;;;;;;;;;;;;6256498;22;20522;-86
2022/10/30 19:25:11;;;;;;;;;;;;;;;;;;6227575;23;19963;-87
2022/10/30 19:27:37;;;;;;;;;;;;;;;;;;6224955;23;19970;-86
2022/10/30 19:30:03;;;;;;;;;;;;;;;;;;6229089;23;19923;-86
2022/10/30 19:32:29;;;;;;;;;;;;;;;;;;6224574;23;19919;-86
2022/10/30 19:34:55;;;;;;;;;;;;;;;;;;6226561;23;20002;-86
2022/10/30 19:37:21;;;;;;;;;;;;;;;;;;6227386;23;19920;-86
2022/10/30 19:39:47;;;;;;;;;;;;;;;;;;6230214;23;20360;-86
2022/10/30 19:42:13;;;;;;;;;;;;;;;;;;6226953;22;19942;-86
2022/10/30 19:44:39;;;;;;;;;;;;;;;;;;6228870;23;19927;-86
2022/10/30 19:47:05;;;;;;;;;;;;;;;;;;6226730;23;19919;-87
2022/10/30 19:49:31;;;;;;;;;;;;;;;;;;6253384;22;19926;-87
2022/10/30 19:51:57;;;;;;;;;;;;;;;;;;6256923;22;19955;-86
2022/10/30 19:54:23;;;;;;;;;;;;;;;;;;6228311;22;19920;-86
2022/10/30 19:56:49;;;;;;;;;;;;;;;;;;6233115;22;19962;-86
2022/10/30 19:59:15;;;;;;;;;;;;;;;;;;6226044;23;20348;-86
2022/10/30 20:01:42;;;;;;;;;;;;;;;;;;6259713;22;19930;-86
2022/10/30 20:04:08;;;;;;;;;;;;;;;;;;6228869;22;20427;-86
2022/10/30 20:06:34;;;;;;;;;;;;;;;;;;6231543;22;19926;-86
2022/10/30 20:09:01;;;;;;;;;;;;;;;;;;6234151;22;20323;-86
2022/10/30 20:11:27;;;;;;;;;;;;;;;;;;6227144;22;19919;-85
2022/10/30 20:13:53;;;;;;;;;;;;;;;;;;6256520;22;20589;-85
2022/10/30 20:16:19;;;;;;;;;;;;;;;;;;6230827;22;19958;-86
2022/10/30 20:18:45;;;;;;;;;;;;;;;;;;6233694;22;19957;-86
2022/10/30 20:21:11;;;;;;;;;;;;;;;;;;6256424;22;19918;-86
2022/10/30 20:23:37;;;;;;;;;;;;;;;;;;6233430;22;19925;-86
2022/10/30 20:26:03;;;;;;;;;;;;;;;;;;6233906;22;19942;-85
2022/10/30 20:28:29;;;;;;;;;;;;;;;;;;6230941;22;19930;-86
2022/10/30 20:30:55;;;;;;;;;;;;;;;;;;6259120;22;19970;-85
2022/10/30 20:33:21;;;;;;;;;;;;;;;;;;6233963;22;19919;-87
2022/10/30 20:35:47;;;;;;;;;;;;;;;;;;6231801;22;19926;-86
2022/10/30 20:38:13;;;;;;;;;;;;;;;;;;6230941;22;20308;-86
2022/10/30 20:40:40;;;;;;;;;;;;;;;;;;6230657;22;20037;-86
2022/10/30 20:43:06;;;;;;;;;;;;;;;;;;6238344;22;19993;-86
2022/10/30 20:45:32;;;;;;;;;;;;;;;;;;6259887;22;19923;-87
2022/10/30 20:47:58;;;;;;;;;;;;;;;;;;6235106;22;20348;-86
2022/10/30 20:50:25;;;;;;;;;;;;;;;;;;6229929;22;19954;-86